Time;durP1;ratioP1;P1;durP2;ratioP2;P2;SDS_P1;SDS_P2;PMS_P1;PMS_P2;Temp;Humidity;BMP_temperature;BMP_pressure;BME280_temperature;BME280_humidity;BME280_pressure;Samples;Min_cycle;Max_cycle;Signal;HPM_P1;HPM_P2
2022/09/24 00:00:57;;;;;;;;;;;10.30;99.90;;;;;;5010242;28;20019;-72
2022/09/24 00:03:25;;;;;;;;;;;10.40;99.90;;;;;;5007544;28;19924;-75
2022/09/24 00:05:52;;;;;;;;;;;10.40;99.90;;;;;;5006364;28;20291;-75
2022/09/24 00:08:19;;;;;;;;;;;10.40;99.90;;;;;;5003130;28;19917;-72
2022/09/24 00:10:47;;;;;;;;;;;10.40;99.90;;;;;;5005685;28;19921;-75
2022/09/24 00:13:16;;;;;;;;;;;10.40;99.90;;;;;;5004738;28;20308;-74
2022/09/24 00:15:44;;;;;;;;;;;10.40;99.90;;;;;;5007798;28;20384;-69
2022/09/24 00:18:12;;;;;;;;;;;10.40;99.90;;;;;;5008778;28;20521;-75
2022/09/24 00:20:39;;;;;;;;;;;10.40;99.90;;;;;;5009537;28;19941;-73
2022/09/24 00:23:07;;;;;;;;;;;10.40;99.90;;;;;;5005297;28;20411;-72
2022/09/24 00:28:24;;;;;;;;;;;10.40;99.90;;;;;;5003466;28;19921;-70
2022/09/24 00:30:51;;;;;;;;;;;10.40;99.90;;;;;;5007599;28;19917;-72
2022/09/24 00:33:18;;;;;;;;;;;10.50;99.90;;;;;;5004633;28;19925;-71
2022/09/24 00:35:44;;;;;;;;;;;10.50;99.90;;;;;;5007282;28;19921;-70
2022/09/24 00:38:11;;;;;;;;;;;10.50;99.90;;;;;;5002746;28;20603;-75
2022/09/24 00:40:38;;;;;;;;;;;10.50;99.90;;;;;;5008224;28;20325;-74
2022/09/24 00:43:41;;;;;;;;;;;10.50;99.90;;;;;;5005267;28;19917;-70
2022/09/24 00:46:26;;;;;;;;;;;10.50;99.90;;;;;;4968948;28;20569;-74
2022/09/24 00:49:00;;;;;;;;;;;10.50;99.90;;;;;;5001992;28;19939;-76
2022/09/24 00:51:27;;;;;;;;;;;10.50;99.90;;;;;;5007374;28;20225;-72
2022/09/24 00:54:05;;;;;;;;;;;10.50;99.90;;;;;;5006527;28;19917;-74
2022/09/24 00:56:35;;;;;;;;;;;10.50;99.90;;;;;;5008145;28;19971;-74
2022/09/24 00:59:03;;;;;;;;;;;10.50;99.90;;;;;;5006147;28;19921;-75
2022/09/24 01:01:30;;;;;;;;;;;10.50;99.90;;;;;;5003316;28;20328;-73
2022/09/24 01:03:57;;;;;;;;;;;10.50;99.90;;;;;;5002384;28;20104;-74
2022/09/24 01:06:24;;;;;;;;;;;10.50;99.90;;;;;;5008084;28;19928;-75
2022/09/24 01:08:53;;;;;;;;;;;10.50;99.90;;;;;;5006234;28;19923;-72
2022/09/24 01:11:28;;;;;;;;;;;10.50;99.90;;;;;;4996563;28;19933;-76
2022/09/24 01:14:02;;;;;;;;;;;10.50;99.90;;;;;;5001085;28;19924;-74
2022/09/24 01:17:07;;;;;;;;;;;10.50;99.90;;;;;;5008132;28;19925;-75
2022/09/24 01:19:40;;;;;;;;;;;10.60;99.90;;;;;;4945445;29;19918;-75
2022/09/24 01:22:27;;;;;;;;;;;10.50;99.90;;;;;;4947175;29;19918;-74
2022/09/24 01:25:23;;;;;;;;;;;10.50;99.90;;;;;;4976034;28;19971;-73
2022/09/24 01:28:04;;;;;;;;;;;10.60;99.90;;;;;;4990072;28;20001;-74
2022/09/24 01:30:33;;;;;;;;;;;10.50;99.90;;;;;;5005360;28;19928;-76
2022/09/24 01:33:02;;;;;;;;;;;10.50;99.90;;;;;;5006264;28;19921;-69
2022/09/24 01:35:36;;;;;;;;;;;10.60;99.90;;;;;;5002265;28;19980;-75
2022/09/24 01:38:08;;;;;;;;;;;10.60;99.90;;;;;;5004554;28;19917;-72
2022/09/24 01:40:35;;;;;;;;;;;10.60;99.90;;;;;;5007692;28;19972;-74
2022/09/24 01:43:04;;;;;;;;;;;10.60;99.90;;;;;;5004874;28;20395;-72
2022/09/24 01:45:32;;;;;;;;;;;10.60;99.90;;;;;;5005181;28;19921;-70
2022/09/24 01:48:02;;;;;;;;;;;10.60;99.90;;;;;;4999133;28;19925;-74
2022/09/24 01:50:32;;;;;;;;;;;10.60;99.90;;;;;;5005322;28;19921;-75
2022/09/24 01:53:16;;;;;;;;;;;10.60;99.90;;;;;;5005465;28;20000;-75
2022/09/24 01:55:47;;;;;;;;;;;10.60;99.90;;;;;;4998974;28;20336;-76
2022/09/24 01:58:17;;;;;;;;;;;10.60;99.90;;;;;;5003526;28;19928;-74
2022/09/24 02:00:46;;;;;;;;;;;10.60;99.90;;;;;;5004698;28;19921;-75
2022/09/24 02:03:21;;;;;;;;;;;10.60;99.90;;;;;;5004118;28;20041;-75
2022/09/24 02:06:07;;;;;;;;;;;10.60;99.90;;;;;;5006760;28;19936;-75
2022/09/24 02:08:43;;;;;;;;;;;10.60;99.90;;;;;;5005267;28;20413;-72
2022/09/24 02:11:13;;;;;;;;;;;10.60;99.90;;;;;;5000747;28;20004;-74
2022/09/24 02:13:42;;;;;;;;;;;10.70;99.90;;;;;;5006473;28;20312;-76
2022/09/24 02:16:13;;;;;;;;;;;10.60;99.90;;;;;;5007388;28;19922;-74
2022/09/24 02:18:43;;;;;;;;;;;10.60;99.90;;;;;;5004809;28;20295;-73
2022/09/24 02:21:12;;;;;;;;;;;10.60;99.90;;;;;;4995724;28;19917;-73
2022/09/24 02:23:42;;;;;;;;;;;10.60;99.90;;;;;;5003766;28;20035;-72
2022/09/24 02:26:10;;;;;;;;;;;10.60;99.90;;;;;;5007335;28;19918;-72
2022/09/24 02:28:36;;;;;;;;;;;10.60;99.90;;;;;;5003755;28;19930;-74
2022/09/24 02:31:06;;;;;;;;;;;10.60;99.90;;;;;;5004794;28;19928;-74
2022/09/24 02:36:23;;;;;;;;;;;10.60;99.90;;;;;;5004196;28;20685;-73
2022/09/24 02:38:51;;;;;;;;;;;10.60;99.90;;;;;;5006381;28;20315;-73
2022/09/24 02:41:18;;;;;;;;;;;10.60;99.90;;;;;;5005829;28;19923;-74
2022/09/24 02:43:46;;;;;;;;;;;10.60;99.90;;;;;;5007226;28;20004;-75
2022/09/24 02:46:13;;;;;;;;;;;10.50;99.90;;;;;;5006861;28;20019;-74
2022/09/24 02:48:40;;;;;;;;;;;10.50;99.90;;;;;;5007052;28;19933;-74
2022/09/24 02:51:07;;;;;;;;;;;10.50;99.90;;;;;;5005893;28;19928;-74
2022/09/24 02:53:34;;;;;;;;;;;10.50;99.90;;;;;;5006411;28;19917;-74
2022/09/24 02:56:01;;;;;;;;;;;10.50;99.90;;;;;;5007348;28;19922;-70
2022/09/24 02:58:28;;;;;;;;;;;10.50;99.90;;;;;;5007021;28;20374;-72
2022/09/24 03:00:56;;;;;;;;;;;10.50;99.90;;;;;;5016897;28;19922;-74
2022/09/24 03:03:23;;;;;;;;;;;10.50;99.90;;;;;;5005548;28;20029;-73
2022/09/24 03:05:53;;;;;;;;;;;10.50;99.90;;;;;;5007488;28;20067;-75
2022/09/24 03:08:21;;;;;;;;;;;10.60;99.90;;;;;;5005891;28;20020;-72
2022/09/24 03:10:49;;;;;;;;;;;10.50;99.90;;;;;;5009922;28;19918;-75
2022/09/24 03:13:17;;;;;;;;;;;10.60;99.90;;;;;;5007135;28;19922;-74
2022/09/24 03:15:44;;;;;;;;;;;10.60;99.90;;;;;;4999559;28;19917;-75
2022/09/24 03:18:11;;;;;;;;;;;10.60;99.90;;;;;;5002974;28;19918;-75
2022/09/24 03:20:38;;;;;;;;;;;10.50;99.90;;;;;;5011318;28;19992;-75
2022/09/24 03:23:05;;;;;;;;;;;10.50;99.90;;;;;;5008357;28;19933;-74
2022/09/24 03:25:32;;;;;;;;;;;10.50;99.90;;;;;;5010313;28;19923;-75
2022/09/24 03:27:59;;;;;;;;;;;10.50;99.90;;;;;;5010310;28;19936;-75
2022/09/24 03:33:11;;;;;;;;;;;10.50;99.90;;;;;;5003063;28;20024;-75
2022/09/24 03:35:38;;;;;;;;;;;10.50;99.90;;;;;;5010308;28;19917;-75
2022/09/24 03:38:05;;;;;;;;;;;10.40;99.90;;;;;;5009750;28;20003;-72
2022/09/24 03:40:31;;;;;;;;;;;10.50;99.90;;;;;;5009788;28;20011;-74
2022/09/24 03:42:58;;;;;;;;;;;10.40;99.90;;;;;;5009214;28;19917;-74
2022/09/24 03:45:25;;;;;;;;;;;10.50;99.90;;;;;;5008272;28;20013;-75
2022/09/24 03:47:52;;;;;;;;;;;10.50;99.90;;;;;;5010133;28;19917;-73
2022/09/24 03:50:18;;;;;;;;;;;10.50;99.90;;;;;;5009927;28;20251;-72
2022/09/24 03:52:45;;;;;;;;;;;10.50;99.90;;;;;;5007689;28;19921;-73
2022/09/24 03:55:12;;;;;;;;;;;10.40;99.90;;;;;;5005781;28;19921;-72
2022/09/24 03:57:39;;;;;;;;;;;10.50;99.90;;;;;;5009161;28;19921;-74
2022/09/24 04:00:06;;;;;;;;;;;10.50;99.90;;;;;;5009626;28;19928;-74
2022/09/24 04:02:33;;;;;;;;;;;10.40;99.90;;;;;;5009911;28;20016;-75
2022/09/24 04:05:00;;;;;;;;;;;10.40;99.90;;;;;;5008106;28;19921;-73
2022/09/24 04:07:27;;;;;;;;;;;10.40;99.90;;;;;;5009367;28;20387;-72
2022/09/24 04:09:54;;;;;;;;;;;10.40;99.90;;;;;;5009424;28;19928;-74
2022/09/24 04:12:21;;;;;;;;;;;10.40;99.90;;;;;;5008938;28;20015;-74
2022/09/24 04:14:48;;;;;;;;;;;10.40;99.90;;;;;;5009096;28;20027;-75
2022/09/24 04:17:16;;;;;;;;;;;10.30;99.90;;;;;;5005595;28;20434;-75
2022/09/24 04:19:43;;;;;;;;;;;10.30;99.90;;;;;;5003588;28;20300;-74
2022/09/24 04:22:09;;;;;;;;;;;10.30;99.90;;;;;;5008908;28;19960;-75
2022/09/24 04:24:36;;;;;;;;;;;10.30;99.90;;;;;;5009249;28;19921;-73
2022/09/24 04:27:03;;;;;;;;;;;10.30;99.90;;;;;;5005858;28;20001;-74
2022/09/24 04:29:30;;;;;;;;;;;10.30;99.90;;;;;;5008013;28;19976;-73
2022/09/24 04:31:56;;;;;;;;;;;10.30;99.90;;;;;;5000791;28;20370;-75
2022/09/24 04:34:23;;;;;;;;;;;10.30;99.90;;;;;;5002491;28;19917;-74
2022/09/24 04:36:50;;;;;;;;;;;10.20;99.90;;;;;;5009542;28;19918;-73
2022/09/24 04:39:17;;;;;;;;;;;10.20;99.90;;;;;;5006735;28;19923;-75
2022/09/24 04:41:46;;;;;;;;;;;10.20;99.90;;;;;;5008880;28;19966;-70
2022/09/24 04:44:14;;;;;;;;;;;10.20;99.90;;;;;;5004664;28;19921;-73
2022/09/24 04:46:41;;;;;;;;;;;10.20;99.90;;;;;;5009440;28;20552;-74
2022/09/24 04:49:08;;;;;;;;;;;10.20;99.90;;;;;;5007138;28;19927;-75
2022/09/24 04:51:35;;;;;;;;;;;10.20;99.90;;;;;;5007967;28;20055;-75
2022/09/24 04:54:02;;;;;;;;;;;10.20;99.90;;;;;;5008373;28;20096;-74
2022/09/24 04:56:29;;;;;;;;;;;10.20;99.90;;;;;;5001259;28;19917;-72
2022/09/24 04:58:57;;;;;;;;;;;10.20;99.90;;;;;;5010252;28;19955;-74
2022/09/24 05:01:24;;;;;;;;;;;10.20;99.90;;;;;;5007416;28;19940;-75
2022/09/24 05:03:52;;;;;;;;;;;10.30;99.90;;;;;;5007577;28;19940;-74
2022/09/24 05:06:19;;;;;;;;;;;10.30;99.90;;;;;;5007566;28;19917;-78
2022/09/24 05:08:46;;;;;;;;;;;10.30;99.90;;;;;;5004762;28;19928;-74
2022/09/24 05:11:12;;;;;;;;;;;10.30;99.90;;;;;;5005836;28;20022;-74
2022/09/24 05:13:39;;;;;;;;;;;10.40;99.90;;;;;;5007514;28;19921;-75
2022/09/24 05:16:06;;;;;;;;;;;10.40;99.90;;;;;;5008761;28;19918;-74
2022/09/24 05:18:33;;;;;;;;;;;10.40;99.90;;;;;;5003510;28;19921;-70
2022/09/24 05:21:00;;;;;;;;;;;10.50;99.90;;;;;;5007093;28;19917;-70
2022/09/24 05:23:27;;;;;;;;;;;10.50;99.90;;;;;;5001219;28;19949;-73
2022/09/24 05:28:41;;;;;;;;;;;10.60;99.90;;;;;;5002627;28;19925;-73
2022/09/24 05:31:09;;;;;;;;;;;10.60;99.90;;;;;;5002420;28;19972;-73
2022/09/24 05:33:36;;;;;;;;;;;10.70;99.90;;;;;;5008494;28;19928;-75
2022/09/24 05:36:03;;;;;;;;;;;10.70;99.90;;;;;;5004792;28;19925;-73
2022/09/24 05:38:31;;;;;;;;;;;10.80;99.90;;;;;;5003657;28;19917;-73
2022/09/24 05:40:58;;;;;;;;;;;10.80;99.90;;;;;;5005936;28;19968;-75
2022/09/24 05:43:26;;;;;;;;;;;10.90;99.90;;;;;;5004541;28;19971;-73
2022/09/24 05:45:53;;;;;;;;;;;10.90;99.90;;;;;;5019661;28;19922;-74
2022/09/24 05:48:20;;;;;;;;;;;10.90;99.90;;;;;;5004964;28;19929;-73
2022/09/24 05:50:47;;;;;;;;;;;11.00;99.90;;;;;;5003341;28;19918;-73
2022/09/24 05:53:14;;;;;;;;;;;11.10;99.90;;;;;;5001882;28;19921;-73
2022/09/24 05:55:41;;;;;;;;;;;11.10;99.90;;;;;;5005233;28;20008;-73
2022/09/24 05:58:12;;;;;;;;;;;11.10;99.90;;;;;;4998038;28;19976;-75
2022/09/24 06:00:39;;;;;;;;;;;11.20;99.90;;;;;;5007475;28;19921;-75
2022/09/24 06:03:10;;;;;;;;;;;11.20;99.90;;;;;;5005989;28;19926;-75
2022/09/24 06:05:37;;;;;;;;;;;11.20;99.90;;;;;;5009577;28;19959;-74
2022/09/24 06:08:04;;;;;;;;;;;11.30;99.90;;;;;;5007201;28;19924;-71
2022/09/24 06:10:31;;;;;;;;;;;11.30;99.90;;;;;;5007048;28;19917;-75
2022/09/24 06:12:58;;;;;;;;;;;11.30;99.90;;;;;;5006057;28;19924;-75
2022/09/24 06:15:26;;;;;;;;;;;11.30;99.90;;;;;;4998241;28;20784;-74
2022/09/24 06:17:53;;;;;;;;;;;11.30;99.90;;;;;;4996718;28;19918;-75
2022/09/24 06:20:20;;;;;;;;;;;11.40;99.90;;;;;;4998613;28;19956;-75
2022/09/24 06:22:47;;;;;;;;;;;11.40;99.90;;;;;;4994256;28;19929;-70
2022/09/24 06:25:14;;;;;;;;;;;11.40;99.90;;;;;;4993464;28;19917;-75
2022/09/24 06:27:41;;;;;;;;;;;11.40;99.90;;;;;;4993142;28;20328;-74
2022/09/24 06:30:08;;;;;;;;;;;11.50;99.90;;;;;;4993458;28;19930;-73
2022/09/24 06:32:34;;;;;;;;;;;11.50;99.90;;;;;;4994422;28;19928;-74
2022/09/24 06:35:01;;;;;;;;;;;11.50;99.90;;;;;;4995128;28;19959;-73
2022/09/24 06:37:28;;;;;;;;;;;11.60;99.90;;;;;;4992916;28;20024;-72
2022/09/24 06:39:55;;;;;;;;;;;11.60;99.90;;;;;;4995510;28;19997;-74
2022/09/24 06:42:21;;;;;;;;;;;11.60;99.90;;;;;;4993778;28;19978;-73
2022/09/24 06:44:50;;;;;;;;;;;11.60;99.90;;;;;;4999284;28;19929;-72
2022/09/24 06:47:17;;;;;;;;;;;11.70;99.90;;;;;;5000503;28;19943;-75
2022/09/24 06:49:44;;;;;;;;;;;11.70;99.90;;;;;;5004519;28;19949;-73
2022/09/24 06:52:10;;;;;;;;;;;11.70;99.90;;;;;;5010522;28;19929;-72
2022/09/24 06:54:37;;;;;;;;;;;11.70;99.90;;;;;;5003624;28;20300;-74
2022/09/24 06:57:05;;;;;;;;;;;11.80;99.90;;;;;;5001560;28;19929;-72
2022/09/24 06:59:32;;;;;;;;;;;11.80;99.90;;;;;;5002642;28;20256;-73
2022/09/24 07:01:58;;;;;;;;;;;11.90;99.90;;;;;;4999812;28;20019;-73
2022/09/24 07:04:25;;;;;;;;;;;11.90;99.90;;;;;;4997835;28;19918;-72
2022/09/24 07:09:40;;;;;;;;;;;12.00;99.90;;;;;;4995108;28;19962;-72
2022/09/24 07:12:07;;;;;;;;;;;12.10;99.90;;;;;;5001717;28;20024;-70
2022/09/24 07:14:34;;;;;;;;;;;12.10;99.90;;;;;;5007744;28;20337;-72
2022/09/24 07:17:01;;;;;;;;;;;12.10;99.90;;;;;;5025102;28;19917;-70
2022/09/24 07:19:28;;;;;;;;;;;12.20;99.90;;;;;;5009683;28;19928;-72
2022/09/24 07:21:54;;;;;;;;;;;12.20;99.90;;;;;;5008284;28;19993;-72
2022/09/24 07:24:21;;;;;;;;;;;12.20;99.90;;;;;;5007989;28;21666;-71
2022/09/24 07:26:48;;;;;;;;;;;12.30;99.90;;;;;;4996639;28;19922;-70
2022/09/24 07:29:15;;;;;;;;;;;12.30;99.90;;;;;;4998641;28;20019;-73
2022/09/24 07:31:41;;;;;;;;;;;12.40;99.90;;;;;;5018941;28;19921;-73
2022/09/24 07:34:08;;;;;;;;;;;12.40;99.90;;;;;;4998807;28;19922;-72
2022/09/24 07:36:35;;;;;;;;;;;12.40;99.90;;;;;;5006418;28;20267;-72
2022/09/24 07:39:02;;;;;;;;;;;12.50;99.90;;;;;;4998592;28;19918;-71
2022/09/24 07:41:29;;;;;;;;;;;12.50;99.90;;;;;;5000018;28;19922;-72
2022/09/24 07:43:56;;;;;;;;;;;12.60;99.90;;;;;;5001270;28;20602;-73
2022/09/24 07:46:23;;;;;;;;;;;12.60;99.90;;;;;;5003906;28;20012;-72
2022/09/24 07:48:56;;;;;;;;;;;12.70;99.90;;;;;;5003781;28;19917;-69
2022/09/24 07:51:24;;;;;;;;;;;12.80;99.90;;;;;;4996691;28;20016;-72
2022/09/24 07:53:51;;;;;;;;;;;12.90;99.90;;;;;;5003806;28;20068;-72
2022/09/24 07:56:18;;;;;;;;;;;12.90;99.90;;;;;;5003569;28;19940;-74
2022/09/24 07:58:49;;;;;;;;;;;13.00;99.90;;;;;;5001933;28;19972;-73
2022/09/24 08:01:16;;;;;;;;;;;13.10;99.90;;;;;;4997613;28;19917;-72
2022/09/24 08:03:45;;;;;;;;;;;13.20;99.90;;;;;;5002327;28;19929;-74
2022/09/24 08:06:12;;;;;;;;;;;13.30;99.90;;;;;;5005484;28;19935;-72
2022/09/24 08:08:39;;;;;;;;;;;13.40;99.90;;;;;;5005210;28;19925;-73
2022/09/24 08:11:06;;;;;;;;;;;13.40;99.90;;;;;;5009379;28;19995;-73
2022/09/24 08:13:33;;;;;;;;;;;13.60;99.90;;;;;;5014574;28;19929;-74
2022/09/24 08:16:00;;;;;;;;;;;13.60;99.90;;;;;;5007145;28;19927;-74
2022/09/24 08:18:29;;;;;;;;;;;13.60;99.90;;;;;;4999104;28;19930;-74
2022/09/24 08:20:57;;;;;;;;;;;13.80;99.90;;;;;;4994680;28;19917;-74
2022/09/24 08:23:24;;;;;;;;;;;13.80;99.90;;;;;;4992338;28;20008;-73
2022/09/24 08:25:52;;;;;;;;;;;13.90;99.90;;;;;;4998344;28;19964;-73
2022/09/24 08:28:19;;;;;;;;;;;14.00;99.90;;;;;;4997242;28;19917;-71
2022/09/24 08:30:46;;;;;;;;;;;14.10;99.90;;;;;;5014024;28;20303;-73
2022/09/24 08:33:14;;;;;;;;;;;14.10;99.90;;;;;;4995294;28;19928;-75
2022/09/24 08:35:41;;;;;;;;;;;14.20;99.90;;;;;;4994947;28;19986;-73
2022/09/24 08:38:08;;;;;;;;;;;14.30;99.90;;;;;;5000539;28;19953;-72
2022/09/24 08:40:41;;;;;;;;;;;14.30;99.90;;;;;;4998520;28;20423;-74
2022/09/24 08:43:13;;;;;;;;;;;14.40;99.90;;;;;;4997525;28;19922;-73
2022/09/24 08:48:35;;;;;;;;;;;14.40;99.90;;;;;;4999048;28;19926;-73
2022/09/24 08:51:03;;;;;;;;;;;14.50;99.90;;;;;;4998430;28;20255;-73
2022/09/24 08:53:42;;;;;;;;;;;14.50;99.90;;;;;;4999135;28;19933;-73
2022/09/24 08:56:10;;;;;;;;;;;14.60;99.90;;;;;;4997638;28;19922;-70
2022/09/24 08:58:45;;;;;;;;;;;14.60;99.90;;;;;;4999846;28;19960;-72
2022/09/24 09:01:11;;;;;;;;;;;14.60;99.90;;;;;;4998731;28;19953;-73
2022/09/24 09:03:39;;;;;;;;;;;14.70;99.90;;;;;;4996202;28;19921;-69
2022/09/24 09:06:24;;;;;;;;;;;14.70;99.90;;;;;;4997587;28;19925;-73
2022/09/24 09:08:53;;;;;;;;;;;14.80;99.90;;;;;;5000354;28;19974;-73
2022/09/24 09:11:34;;;;;;;;;;;14.80;99.90;;;;;;5003799;28;19925;-73
2022/09/24 09:14:07;;;;;;;;;;;14.80;99.90;;;;;;5002232;28;20271;-69
2022/09/24 09:16:39;;;;;;;;;;;14.80;99.90;;;;;;5004200;28;19932;-72
2022/09/24 09:19:08;;;;;;;;;;;14.90;99.90;;;;;;4995736;28;19921;-72
2022/09/24 09:21:35;;;;;;;;;;;14.90;99.90;;;;;;5004135;28;20043;-74
2022/09/24 09:24:03;;;;;;;;;;;15.00;99.90;;;;;;5006003;28;19917;-70
2022/09/24 09:26:30;;;;;;;;;;;15.00;99.90;;;;;;5009457;28;20487;-72
2022/09/24 09:28:59;;;;;;;;;;;15.00;99.90;;;;;;4997498;28;19963;-70
2022/09/24 09:31:45;;;;;;;;;;;15.00;99.90;;;;;;5003530;28;19917;-73
2022/09/24 09:34:30;;;;;;;;;;;15.00;99.90;;;;;;5003523;28;19925;-74
2022/09/24 09:37:03;;;;;;;;;;;15.10;99.90;;;;;;5004941;28;19925;-73
2022/09/24 09:39:36;;;;;;;;;;;15.20;99.90;;;;;;4997427;28;20533;-73
2022/09/24 09:42:22;;;;;;;;;;;15.20;99.90;;;;;;5002417;28;19917;-72
2022/09/24 09:44:48;;;;;;;;;;;15.20;99.90;;;;;;5006352;28;19955;-72
2022/09/24 09:47:23;;;;;;;;;;;15.30;99.90;;;;;;5006411;28;20032;-74
2022/09/24 09:49:52;;;;;;;;;;;15.20;99.90;;;;;;5007628;28;19987;-73
2022/09/24 09:52:20;;;;;;;;;;;15.30;99.90;;;;;;5006389;28;19954;-73
2022/09/24 09:54:47;;;;;;;;;;;15.40;99.90;;;;;;5004777;28;19917;-73
2022/09/24 09:57:17;;;;;;;;;;;15.50;99.90;;;;;;4998751;28;20007;-73
2022/09/24 09:59:48;;;;;;;;;;;15.50;99.90;;;;;;5002353;28;20367;-72
2022/09/24 10:02:20;;;;;;;;;;;15.50;99.90;;;;;;5007327;28;19952;-70
2022/09/24 10:04:51;;;;;;;;;;;15.60;99.90;;;;;;5007428;28;20012;-73
2022/09/24 10:07:17;;;;;;;;;;;15.70;99.90;;;;;;5006388;28;19921;-73
2022/09/24 10:09:45;;;;;;;;;;;15.80;99.90;;;;;;5006299;28;20031;-73
2022/09/24 10:12:23;;;;;;;;;;;15.80;99.90;;;;;;5007746;28;19921;-73
2022/09/24 10:14:57;;;;;;;;;;;15.80;99.90;;;;;;5006389;28;19921;-73
2022/09/24 10:17:26;;;;;;;;;;;15.70;99.90;;;;;;5002872;28;19929;-73
2022/09/24 10:19:54;;;;;;;;;;;15.50;99.90;;;;;;5002560;28;19921;-72
2022/09/24 10:22:22;;;;;;;;;;;15.40;99.90;;;;;;5005538;28;19979;-70
2022/09/24 10:24:49;;;;;;;;;;;15.40;99.90;;;;;;5006254;28;19921;-72
2022/09/24 10:27:22;;;;;;;;;;;15.50;99.90;;;;;;5005767;28;20025;-73
2022/09/24 10:32:39;;;;;;;;;;;15.60;99.90;;;;;;5010357;28;19948;-73
2022/09/24 10:35:24;;;;;;;;;;;15.50;99.90;;;;;;5004703;28;19939;-73
2022/09/24 10:38:01;;;;;;;;;;;15.60;99.90;;;;;;5007954;28;19923;-73
2022/09/24 10:40:30;;;;;;;;;;;15.80;99.90;;;;;;4998580;28;19922;-72
2022/09/24 10:42:58;;;;;;;;;;;15.70;99.90;;;;;;5005922;28;20327;-73
2022/09/24 10:45:40;;;;;;;;;;;15.70;99.90;;;;;;5005814;28;20645;-72
2022/09/24 10:48:14;;;;;;;;;;;15.70;99.90;;;;;;5006944;28;20307;-75
2022/09/24 10:50:56;;;;;;;;;;;15.60;99.90;;;;;;4995563;28;19929;-70
2022/09/24 10:53:23;;;;;;;;;;;15.50;99.90;;;;;;4997056;28;19922;-74
2022/09/24 10:56:02;;;;;;;;;;;15.50;99.90;;;;;;5004704;28;20324;-73
2022/09/24 10:58:47;;;;;;;;;;;15.50;99.90;;;;;;5003284;28;19953;-73
2022/09/24 11:01:16;;;;;;;;;;;15.50;99.90;;;;;;5004079;28;19921;-69
2022/09/24 11:03:53;;;;;;;;;;;15.40;99.90;;;;;;5013632;28;19917;-73
2022/09/24 11:06:35;;;;;;;;;;;15.50;99.90;;;;;;4997839;28;20036;-73
2022/09/24 11:09:40;;;;;;;;;;;15.60;99.90;;;;;;5003968;28;19918;-73
2022/09/24 11:12:26;;;;;;;;;;;15.60;99.90;;;;;;4963099;28;19953;-73
2022/09/24 11:14:56;;;;;;;;;;;15.50;99.90;;;;;;4944108;28;19953;-72
2022/09/24 11:17:31;;;;;;;;;;;15.50;99.90;;;;;;4987278;28;19930;-72
2022/09/24 11:20:18;;;;;;;;;;;15.50;99.90;;;;;;5008951;28;19967;-73
2022/09/24 11:23:06;;;;;;;;;;;15.40;99.90;;;;;;5003256;28;20314;-73
2022/09/24 11:25:33;;;;;;;;;;;15.30;99.90;;;;;;5002614;28;20040;-72
2022/09/24 11:27:59;;;;;;;;;;;15.30;99.90;;;;;;5006215;28;19925;-73
2022/09/24 11:30:46;;;;;;;;;;;15.40;99.90;;;;;;5005567;28;19974;-73
2022/09/24 11:33:25;;;;;;;;;;;15.30;99.90;;;;;;4977555;28;20285;-74
2022/09/24 11:35:58;;;;;;;;;;;15.20;99.90;;;;;;5018064;28;19964;-70
2022/09/24 11:38:26;;;;;;;;;;;15.30;99.90;;;;;;5003842;28;20023;-73
2022/09/24 11:41:13;;;;;;;;;;;15.30;99.90;;;;;;5004055;28;20205;-73
2022/09/24 11:43:59;;;;;;;;;;;15.20;99.90;;;;;;5006633;28;19921;-73
2022/09/24 11:46:45;;;;;;;;;;;15.30;99.90;;;;;;5006969;28;19918;-73
2022/09/24 11:49:23;;;;;;;;;;;15.30;99.90;;;;;;5002657;28;19921;-72
2022/09/24 11:52:07;;;;;;;;;;;15.20;99.90;;;;;;5006125;28;19964;-72
2022/09/24 11:54:36;;;;;;;;;;;15.10;99.90;;;;;;5007542;28;19967;-73
2022/09/24 11:57:09;;;;;;;;;;;15.10;99.90;;;;;;5006787;28;19937;-74
2022/09/24 11:59:55;;;;;;;;;;;15.00;99.90;;;;;;5000029;28;19933;-73
2022/09/24 12:02:33;;;;;;;;;;;15.00;99.90;;;;;;5006911;28;19925;-73
2022/09/24 12:05:19;;;;;;;;;;;15.00;99.90;;;;;;5018145;28;20251;-73
2022/09/24 12:08:11;;;;;;;;;;;15.00;99.90;;;;;;5004133;28;19984;-74
2022/09/24 12:10:52;;;;;;;;;;;15.00;99.90;;;;;;5002849;28;19933;-74
2022/09/24 12:13:32;;;;;;;;;;;15.00;99.90;;;;;;5005535;28;19967;-73
2022/09/24 12:16:06;;;;;;;;;;;15.00;99.90;;;;;;5007260;28;19922;-72
2022/09/24 12:18:49;;;;;;;;;;;15.00;99.90;;;;;;5005728;28;20276;-74
2022/09/24 12:21:19;;;;;;;;;;;15.00;99.90;;;;;;5001233;28;19972;-72
2022/09/24 12:23:47;;;;;;;;;;;15.10;99.90;;;;;;5004210;28;19917;-73
2022/09/24 12:26:16;;;;;;;;;;;15.10;99.90;;;;;;5003443;28;20382;-75
2022/09/24 12:34:49;;;;;;;;;;;15.30;99.90;;;;;;5004002;28;19925;-73
2022/09/24 12:37:19;;;;;;;;;;;15.40;99.90;;;;;;5003302;28;19943;-76
2022/09/24 12:39:52;;;;;;;;;;;15.60;99.90;;;;;;5003058;28;19963;-75
2022/09/24 12:42:20;;;;;;;;;;;15.90;99.90;;;;;;5001494;28;19976;-76
2022/09/24 12:44:52;;;;;;;;;;;16.00;99.90;;;;;;5001665;28;19953;-73
2022/09/24 12:47:22;;;;;;;;;;;16.20;99.90;;;;;;5002826;28;19936;-72
2022/09/24 12:49:51;;;;;;;;;;;16.20;99.90;;;;;;5003089;28;19933;-76
2022/09/24 12:52:22;;;;;;;;;;;16.00;99.90;;;;;;5003176;28;20019;-75
2022/09/24 12:54:54;;;;;;;;;;;16.00;99.90;;;;;;5000822;28;20029;-74
2022/09/24 12:57:22;;;;;;;;;;;16.00;99.90;;;;;;5003120;28;19949;-75
2022/09/24 12:59:56;;;;;;;;;;;16.20;99.90;;;;;;5002916;28;19929;-74
2022/09/24 13:02:27;;;;;;;;;;;16.30;99.90;;;;;;5004500;28;20512;-76
2022/09/24 13:05:00;;;;;;;;;;;16.40;99.90;;;;;;5003969;28;19917;-73
2022/09/24 13:07:38;;;;;;;;;;;16.50;99.90;;;;;;5002970;28;19917;-76
2022/09/24 13:10:20;;;;;;;;;;;16.60;99.90;;;;;;5002996;28;19948;-75
2022/09/24 13:12:48;;;;;;;;;;;16.50;99.90;;;;;;5004144;28;19918;-74
2022/09/24 13:15:37;;;;;;;;;;;16.60;99.90;;;;;;5002981;28;20040;-73
2022/09/24 13:18:10;;;;;;;;;;;16.40;99.90;;;;;;5005446;28;19924;-71
2022/09/24 13:20:39;;;;;;;;;;;16.20;99.90;;;;;;5003854;28;20524;-74
2022/09/24 13:23:18;;;;;;;;;;;16.20;99.90;;;;;;5001202;28;19968;-72
2022/09/24 13:25:55;;;;;;;;;;;16.20;99.90;;;;;;5005232;28;20359;-72
2022/09/24 13:28:21;;;;;;;;;;;16.30;99.90;;;;;;5003736;28;19967;-70
2022/09/24 13:30:50;;;;;;;;;;;16.10;99.90;;;;;;5005111;28;19921;-73
2022/09/24 13:33:26;;;;;;;;;;;16.00;99.90;;;;;;5001924;28;19921;-73
2022/09/24 13:35:53;;;;;;;;;;;15.90;99.90;;;;;;5006530;28;19918;-71
2022/09/24 13:38:22;;;;;;;;;;;15.80;99.90;;;;;;5004876;28;19941;-72
2022/09/24 13:41:00;;;;;;;;;;;15.70;99.90;;;;;;5005276;28;20403;-72
2022/09/24 13:43:37;;;;;;;;;;;15.70;99.90;;;;;;5004261;28;20006;-73
2022/09/24 13:46:06;;;;;;;;;;;15.60;99.90;;;;;;5004082;28;19933;-73
2022/09/24 13:48:35;;;;;;;;;;;15.50;99.90;;;;;;5004449;28;20012;-73
2022/09/24 13:51:03;;;;;;;;;;;15.40;99.90;;;;;;5004653;28;20008;-74
2022/09/24 13:53:39;;;;;;;;;;;15.40;99.90;;;;;;5004806;28;19929;-73
2022/09/24 13:56:11;;;;;;;;;;;15.40;99.90;;;;;;5002470;28;19931;-72
2022/09/24 13:58:38;;;;;;;;;;;15.30;99.90;;;;;;5005506;28;20004;-72
2022/09/24 14:01:26;;;;;;;;;;;15.20;99.90;;;;;;5000993;28;20350;-71
2022/09/24 14:03:54;;;;;;;;;;;15.20;99.90;;;;;;5005259;28;19929;-72
2022/09/24 14:06:38;;;;;;;;;;;15.20;99.90;;;;;;5004391;28;19928;-73
2022/09/24 14:09:34;;;;;;;;;;;15.20;99.90;;;;;;5001925;28;19917;-73
2022/09/24 14:12:12;;;;;;;;;;;15.20;99.90;;;;;;5003778;28;19929;-72
2022/09/24 14:14:42;;;;;;;;;;;15.10;99.90;;;;;;5004055;28;19928;-72
2022/09/24 14:17:12;;;;;;;;;;;15.10;99.90;;;;;;5004735;28;19930;-74
2022/09/24 14:19:38;;;;;;;;;;;15.00;99.90;;;;;;5001380;28;20020;-74
2022/09/24 14:22:10;;;;;;;;;;;15.00;99.90;;;;;;5002898;28;19917;-72
2022/09/24 14:24:42;;;;;;;;;;;14.90;99.90;;;;;;5011302;28;20296;-74
2022/09/24 14:27:12;;;;;;;;;;;15.00;99.90;;;;;;5006039;28;19921;-72
2022/09/24 14:29:43;;;;;;;;;;;15.00;99.90;;;;;;5007281;28;20012;-71
2022/09/24 14:32:20;;;;;;;;;;;15.00;99.90;;;;;;5007491;28;20294;-74
2022/09/24 14:34:50;;;;;;;;;;;15.10;99.90;;;;;;5006115;28;20012;-74
2022/09/24 14:37:18;;;;;;;;;;;15.10;99.90;;;;;;5004933;28;20023;-72
2022/09/24 14:39:47;;;;;;;;;;;15.00;99.90;;;;;;5005396;28;19929;-72
2022/09/24 14:42:22;;;;;;;;;;;15.00;99.90;;;;;;5021052;28;19921;-74
2022/09/24 14:44:50;;;;;;;;;;;15.00;99.90;;;;;;5005154;28;19968;-73
2022/09/24 14:47:27;;;;;;;;;;;15.00;99.90;;;;;;5004815;28;20015;-74
2022/09/24 14:49:55;;;;;;;;;;;14.90;99.90;;;;;;5004877;28;19975;-73
2022/09/24 14:52:32;;;;;;;;;;;14.90;99.90;;;;;;5006503;28;19917;-73
2022/09/24 14:55:14;;;;;;;;;;;14.90;99.90;;;;;;5004297;28;19925;-73
2022/09/24 14:57:41;;;;;;;;;;;14.80;99.90;;;;;;5005227;28;19932;-73
2022/09/24 15:00:18;;;;;;;;;;;14.70;99.90;;;;;;5006395;28;19922;-73
2022/09/24 15:02:49;;;;;;;;;;;14.60;99.90;;;;;;5005999;28;19949;-74